createdAt,value
2023-04-24T00:02:12.189Z,17.23
2023-04-24T00:04:45.886Z,16.43
2023-04-24T00:07:14.117Z,16.93
2023-04-24T00:09:41.672Z,21.00
2023-04-24T00:12:09.233Z,20.27
2023-04-24T00:14:36.775Z,15.83
2023-04-24T00:17:04.252Z,19.70
2023-04-24T00:19:31.843Z,16.93
2023-04-24T00:21:59.059Z,22.77
2023-04-24T00:24:26.498Z,20.13
2023-04-24T00:26:53.578Z,19.67
2023-04-24T00:29:20.986Z,17.30
2023-04-24T00:31:48.238Z,23.33
2023-04-24T00:34:15.637Z,22.47
2023-04-24T00:36:42.641Z,21.97
2023-04-24T00:39:10.001Z,21.47
2023-04-24T00:41:37.259Z,23.20
2023-04-24T00:44:04.641Z,20.83
2023-04-24T00:46:32.620Z,20.43
2023-04-24T00:49:00.868Z,21.80
2023-04-24T00:51:28.489Z,23.60
2023-04-24T00:53:56.397Z,22.67
2023-04-24T00:56:24.408Z,22.47
2023-04-24T00:58:52.279Z,22.60
2023-04-24T01:01:22.997Z,24.60
2023-04-24T01:03:53.652Z,23.83
2023-04-24T01:06:21.433Z,20.93
2023-04-24T01:08:49.695Z,24.47
2023-04-24T01:11:17.036Z,23.57
2023-04-24T01:13:47.523Z,27.23
2023-04-24T01:16:16.318Z,29.23
2023-04-24T01:18:44.327Z,28.83
2023-04-24T01:21:16.063Z,27.87
2023-04-24T01:23:46.804Z,30.13
2023-04-24T01:26:17.697Z,30.63
2023-04-24T01:28:45.790Z,26.70
2023-04-24T01:31:13.308Z,31.33
2023-04-24T01:33:42.708Z,31.77
2023-04-24T01:36:12.393Z,31.60
2023-04-24T01:38:39.867Z,28.23
2023-04-24T01:41:06.914Z,28.47
2023-04-24T01:43:34.256Z,28.47
2023-04-24T01:46:01.391Z,28.97
2023-04-24T01:48:29.064Z,35.00
2023-04-24T01:50:57.525Z,28.40
2023-04-24T01:53:24.901Z,29.87
2023-04-24T01:55:52.004Z,33.50
2023-04-24T01:58:19.366Z,35.17
2023-04-24T02:00:46.456Z,32.90
2023-04-24T02:03:15.569Z,31.40
2023-04-24T02:05:46.267Z,35.20
2023-04-24T02:08:13.676Z,32.57
2023-04-24T02:10:41.023Z,33.97
2023-04-24T02:13:08.572Z,30.53
2023-04-24T02:15:36.993Z,37.50
2023-04-24T02:18:04.658Z,32.00
2023-04-24T02:20:35.072Z,30.03
2023-04-24T02:23:02.764Z,36.40
2023-04-24T02:25:29.880Z,34.03
2023-04-24T02:27:57.176Z,37.07
2023-04-24T02:30:24.233Z,35.53
2023-04-24T02:32:51.613Z,36.67
2023-04-24T02:35:19.037Z,35.73
2023-04-24T02:37:46.421Z,37.93
2023-04-24T02:40:13.728Z,36.00
2023-04-24T02:42:41.098Z,30.80
2023-04-24T02:45:08.703Z,31.17
2023-04-24T02:47:36.128Z,40.63
2023-04-24T02:50:04.332Z,34.70
2023-04-24T02:52:32.171Z,32.00
2023-04-24T02:54:59.267Z,38.17
2023-04-24T02:57:26.628Z,41.03
2023-04-24T02:59:53.867Z,33.83
2023-04-24T03:02:21.928Z,34.73
2023-04-24T03:07:17.189Z,36.20
2023-04-24T03:09:44.872Z,37.03
2023-04-24T03:12:12.979Z,36.73
2023-04-24T03:14:40.766Z,36.53
2023-04-24T03:17:08.486Z,38.07
2023-04-24T03:19:35.656Z,31.83
2023-04-24T03:22:10.679Z,35.80
2023-04-24T03:24:38.919Z,38.57
2023-04-24T03:27:06.556Z,36.63
2023-04-24T03:29:47.551Z,41.80
2023-04-24T03:32:16.302Z,38.37
2023-04-24T03:34:43.685Z,35.93
2023-04-24T03:37:16.134Z,46.63
2023-04-24T03:39:51.439Z,35.73
2023-04-24T03:42:23.446Z,38.57
2023-04-24T03:44:55.302Z,41.53
2023-04-24T03:47:26.419Z,36.10
2023-04-24T03:49:57.009Z,37.83
2023-04-24T03:52:24.714Z,38.40
2023-04-24T03:54:52.308Z,37.20
2023-04-24T03:57:19.748Z,40.90
2023-04-24T03:59:59.716Z,36.73
2023-04-24T04:02:27.815Z,35.03
2023-04-24T04:04:55.653Z,38.97
2023-04-24T04:07:23.045Z,42.50
2023-04-24T04:09:50.993Z,36.90
2023-04-24T04:12:18.421Z,44.80
2023-04-24T04:14:47.711Z,44.20
2023-04-24T04:17:16.183Z,39.80
2023-04-24T04:19:44.003Z,40.77
2023-04-24T04:22:11.694Z,39.63
2023-04-24T04:24:44.156Z,41.43
2023-04-24T04:27:12.035Z,41.60
2023-04-24T04:29:47.762Z,38.20
2023-04-24T04:32:17.163Z,35.67
2023-04-24T04:34:46.514Z,41.80
2023-04-24T04:37:15.464Z,37.47
2023-04-24T04:39:51.842Z,37.17
2023-04-24T04:42:24.732Z,42.77
2023-04-24T04:44:52.504Z,38.67
2023-04-24T04:47:25.357Z,34.33
2023-04-24T04:49:54.941Z,40.83
2023-04-24T04:52:27.659Z,36.07
2023-04-24T04:55:14.385Z,44.10
2023-04-24T04:58:06.104Z,36.73
2023-04-24T05:00:36.766Z,44.03
2023-04-24T05:03:19.102Z,30.53
2023-04-24T05:05:49.045Z,32.87
2023-04-24T05:08:26.581Z,34.50
2023-04-24T05:10:56.218Z,31.83
2023-04-24T05:15:55.186Z,30.30
2023-04-24T05:18:22.582Z,25.43
2023-04-24T05:20:50.539Z,26.50
2023-04-24T05:23:18.062Z,25.08
2023-04-24T05:25:48.452Z,23.53
2023-04-24T05:28:16.510Z,23.40
2023-04-24T05:30:47.877Z,23.37
2023-04-24T05:33:17.810Z,25.00
2023-04-24T05:35:47.539Z,24.60
2023-04-24T05:38:18.766Z,23.50
2023-04-24T05:40:46.341Z,28.27
2023-04-24T05:43:14.003Z,25.83
2023-04-24T05:45:41.323Z,25.65
2023-04-24T05:48:08.747Z,21.17
2023-04-24T05:50:37.198Z,19.38
2023-04-24T05:53:05.190Z,21.27
2023-04-24T05:55:35.360Z,21.52
2023-04-24T05:58:02.849Z,19.75
2023-04-24T06:00:31.177Z,17.15
2023-04-24T06:03:06.565Z,16.10
2023-04-24T06:05:33.937Z,16.80
2023-04-24T06:08:03.833Z,17.17
2023-04-24T06:10:37.144Z,17.23
2023-04-24T06:13:05.594Z,14.48
2023-04-24T06:15:35.281Z,13.57
2023-04-24T06:18:08.392Z,16.13
2023-04-24T06:20:37.383Z,15.35
2023-04-24T06:23:05.015Z,20.13
2023-04-24T06:25:34.385Z,16.42
2023-04-24T06:28:02.852Z,15.90
2023-04-24T06:30:31.505Z,20.02
2023-04-24T06:33:09.296Z,17.42
2023-04-24T06:35:46.428Z,14.57
2023-04-24T06:38:13.778Z,18.00
2023-04-24T06:40:41.254Z,19.00
2023-04-24T06:43:09.032Z,15.98
2023-04-24T06:45:36.551Z,15.02
2023-04-24T06:48:04.531Z,15.43
2023-04-24T06:50:32.074Z,17.50
2023-04-24T06:52:59.860Z,20.63
2023-04-24T06:55:27.076Z,19.35
2023-04-24T06:57:54.471Z,19.77
2023-04-24T07:00:22.441Z,25.00
2023-04-24T07:02:50.315Z,20.92
2023-04-24T07:05:20.923Z,20.83
2023-04-24T07:07:50.392Z,20.35
2023-04-24T07:10:17.860Z,21.50
2023-04-24T07:12:45.602Z,21.08
2023-04-24T07:15:13.576Z,16.63
2023-04-24T07:17:47.162Z,21.92
2023-04-24T07:20:17.340Z,16.30
2023-04-24T07:22:44.976Z,15.85
2023-04-24T07:25:12.503Z,16.23
2023-04-24T07:27:40.710Z,15.60
2023-04-24T07:30:08.455Z,15.57
2023-04-24T07:32:36.277Z,18.45
2023-04-24T07:35:03.893Z,19.05
2023-04-24T07:37:31.378Z,15.65
2023-04-24T07:39:59.053Z,21.08
2023-04-24T07:42:27.045Z,19.10
2023-04-24T07:44:54.146Z,14.05
2023-04-24T07:47:22.890Z,13.27
2023-04-24T07:49:50.564Z,15.85
2023-04-24T07:52:18.454Z,14.85
2023-04-24T07:54:46.063Z,14.88
2023-04-24T07:57:14.907Z,15.75
2023-04-24T07:59:42.806Z,16.02
2023-04-24T08:02:11.088Z,10.43
2023-04-24T08:04:38.789Z,10.70
2023-04-24T08:07:06.764Z,13.82
2023-04-24T08:09:33.989Z,12.07
2023-04-24T08:12:02.380Z,9.30
2023-04-24T08:14:30.158Z,11.25
2023-04-24T08:16:58.512Z,10.85
2023-04-24T08:19:26.589Z,10.85
2023-04-24T08:21:53.941Z,8.25
2023-04-24T08:24:21.098Z,11.52
2023-04-24T08:26:51.327Z,9.93
2023-04-24T08:29:18.568Z,13.05
2023-04-24T08:31:46.017Z,9.75
2023-04-24T08:34:13.970Z,8.65
2023-04-24T08:36:46.940Z,9.48
2023-04-24T08:39:15.368Z,10.70
2023-04-24T08:41:47.065Z,12.90
2023-04-24T08:44:16.766Z,8.50
2023-04-24T08:46:48.783Z,9.13
2023-04-24T08:49:20.682Z,9.98
2023-04-24T08:51:49.089Z,9.60
2023-04-24T08:54:16.338Z,10.07
2023-04-24T08:56:46.098Z,7.63
2023-04-24T08:59:14.032Z,11.35
2023-04-24T09:01:42.390Z,13.15
2023-04-24T09:04:12.157Z,7.53
2023-04-24T09:06:40.414Z,27.90
2023-04-24T09:09:07.954Z,9.63
2023-04-24T09:11:36.052Z,12.57
2023-04-24T09:14:03.393Z,15.18
2023-04-24T09:16:32.127Z,8.57
2023-04-24T09:19:01.258Z,13.45
2023-04-24T09:21:34.599Z,12.70
2023-04-24T09:24:05.078Z,12.85
2023-04-24T09:26:35.184Z,10.80
2023-04-24T09:29:02.397Z,9.20
2023-04-24T09:31:30.804Z,11.00
2023-04-24T09:34:02.046Z,9.75
2023-04-24T09:36:35.467Z,19.00
2023-04-24T09:39:09.447Z,7.63
2023-04-24T09:41:37.484Z,7.13
2023-04-24T09:44:18.618Z,9.30
2023-04-24T09:46:50.777Z,7.82
2023-04-24T09:49:26.032Z,8.38
2023-04-24T09:51:54.163Z,6.18
2023-04-24T09:54:23.047Z,6.22
2023-04-24T09:56:51.722Z,5.85
2023-04-24T09:59:20.808Z,6.32
2023-04-24T10:01:50.450Z,6.80
2023-04-24T10:04:26.269Z,8.50
2023-04-24T10:06:55.970Z,8.23
2023-04-24T10:09:25.779Z,9.43
2023-04-24T10:11:54.852Z,21.10
2023-04-24T10:14:24.371Z,6.25
2023-04-24T10:16:55.232Z,9.73
2023-04-24T10:19:23.959Z,10.18
2023-04-24T10:21:51.779Z,7.13
2023-04-24T10:24:22.261Z,9.07
2023-04-24T10:26:50.251Z,7.97
2023-04-24T10:29:20.246Z,8.50
2023-04-24T10:31:48.660Z,6.72
2023-04-24T10:34:18.794Z,6.95
2023-04-24T10:36:52.557Z,13.00
2023-04-24T10:39:27.764Z,13.35
2023-04-24T10:42:00.034Z,10.88
2023-04-24T10:44:37.556Z,9.50
2023-04-24T10:47:05.329Z,9.38
2023-04-24T10:49:33.226Z,9.63
2023-04-24T10:52:08.636Z,9.50
2023-04-24T10:54:43.434Z,11.25
2023-04-24T10:57:23.431Z,8.18
2023-04-24T11:00:10.681Z,7.45
2023-04-24T11:02:42.781Z,11.93
2023-04-24T11:05:12.046Z,22.42
2023-04-24T11:08:14.090Z,12.05
2023-04-24T11:11:00.802Z,12.45
2023-04-24T11:13:57.570Z,15.52
2023-04-24T11:16:24.822Z,8.32
2023-04-24T11:19:00.746Z,12.52
2023-04-24T11:21:43.114Z,9.45
2023-04-24T11:24:28.951Z,11.40
2023-04-24T11:26:57.942Z,11.15
2023-04-24T11:29:58.451Z,10.48
2023-04-24T11:32:31.910Z,10.38
2023-04-24T11:35:05.148Z,22.02
2023-04-24T11:37:43.206Z,9.05
2023-04-24T11:40:16.649Z,10.93
2023-04-24T11:42:48.277Z,11.90
2023-04-24T11:45:17.978Z,10.00
2023-04-24T11:47:46.220Z,8.65
2023-04-24T11:50:16.366Z,25.15
2023-04-24T11:52:48.304Z,10.07
2023-04-24T11:55:15.736Z,14.43
2023-04-24T11:57:47.086Z,13.35
2023-04-24T12:00:20.621Z,9.25
2023-04-24T12:02:49.083Z,11.93
2023-04-24T12:05:22.427Z,15.90
2023-04-24T12:07:50.854Z,10.63
2023-04-24T12:10:22.907Z,14.32
2023-04-24T12:12:52.451Z,14.52
2023-04-24T12:15:24.139Z,14.65
2023-04-24T12:17:55.762Z,11.38
2023-04-24T12:20:32.402Z,12.60
2023-04-24T12:23:01.937Z,11.13
2023-04-24T12:25:31.116Z,12.98
2023-04-24T12:28:04.161Z,9.45
2023-04-24T12:30:39.382Z,11.32
2023-04-24T12:33:07.055Z,10.55
2023-04-24T12:35:36.762Z,8.05
2023-04-24T12:38:11.452Z,9.88
2023-04-24T12:40:39.249Z,6.43
2023-04-24T12:43:16.745Z,7.25
2023-04-24T12:45:46.089Z,9.38
2023-04-24T12:48:17.509Z,8.77
2023-04-24T12:50:46.940Z,5.28
2023-04-24T12:53:15.230Z,6.97
2023-04-24T12:55:43.080Z,5.32
2023-04-24T12:58:10.323Z,5.97
2023-04-24T13:00:38.465Z,6.18
2023-04-24T13:03:06.155Z,6.70
2023-04-24T13:05:33.770Z,7.53
2023-04-24T13:08:00.906Z,7.43
2023-04-24T13:10:28.957Z,8.20
2023-04-24T13:12:56.122Z,5.32
2023-04-24T13:15:23.961Z,7.82
2023-04-24T13:17:51.933Z,9.57
2023-04-24T13:20:20.014Z,4.20
2023-04-24T13:22:47.401Z,5.68
2023-04-24T13:25:18.010Z,6.30
2023-04-24T13:27:45.429Z,8.40
2023-04-24T13:30:13.231Z,7.75
2023-04-24T13:32:40.567Z,6.60
2023-04-24T13:35:08.512Z,6.43
2023-04-24T13:37:36.238Z,6.55
2023-04-24T13:40:07.171Z,5.65
2023-04-24T13:42:35.183Z,6.72
2023-04-24T13:45:14.021Z,8.15
2023-04-24T13:47:52.044Z,8.75
2023-04-24T13:50:20.019Z,29.73
2023-04-24T13:52:47.128Z,12.00
2023-04-24T13:55:14.644Z,7.93
2023-04-24T13:57:41.940Z,10.43
2023-04-24T14:00:11.738Z,17.27
2023-04-24T14:02:39.418Z,11.90
2023-04-24T14:05:07.842Z,13.10
2023-04-24T14:07:35.120Z,9.95
2023-04-24T14:10:02.782Z,13.23
2023-04-24T14:12:30.388Z,17.63
2023-04-24T14:14:57.919Z,39.60
2023-04-24T14:17:25.198Z,17.77
2023-04-24T14:19:57.394Z,8.13
2023-04-24T14:22:24.791Z,65.20
2023-04-24T14:24:52.526Z,13.77
2023-04-24T14:27:20.047Z,7.22
2023-04-24T14:29:47.968Z,11.00
2023-04-24T14:32:16.242Z,8.48
2023-04-24T14:34:43.926Z,9.07
2023-04-24T14:37:11.291Z,12.07
2023-04-24T14:39:38.850Z,5.78
2023-04-24T14:42:07.528Z,7.20
2023-04-24T14:44:35.168Z,5.30
2023-04-24T14:47:03.299Z,7.28
2023-04-24T14:49:31.913Z,10.82
2023-04-24T14:52:00.527Z,110.35
2023-04-24T14:54:28.505Z,7.55
2023-04-24T14:56:58.241Z,12.73
2023-04-24T14:59:27.056Z,6.13
2023-04-24T15:02:08.996Z,5.88
2023-04-24T15:04:44.152Z,8.90
2023-04-24T15:07:12.095Z,8.35
2023-04-24T15:09:40.555Z,5.18
2023-04-24T15:12:08.567Z,9.80
2023-04-24T15:14:36.317Z,5.63
2023-04-24T15:17:03.979Z,22.98
2023-04-24T15:19:32.900Z,17.17
2023-04-24T15:22:01.051Z,7.05
2023-04-24T15:24:29.142Z,7.13
2023-04-24T15:26:59.454Z,8.52
2023-04-24T15:29:29.089Z,6.93
2023-04-24T15:31:59.453Z,4.43
2023-04-24T15:34:27.451Z,8.35
2023-04-24T15:36:55.318Z,7.55
2023-04-24T15:39:26.271Z,8.77
2023-04-24T15:41:57.885Z,6.97
2023-04-24T15:44:26.197Z,8.25
2023-04-24T15:46:54.019Z,7.82
2023-04-24T15:49:22.268Z,10.38
2023-04-24T15:51:49.587Z,10.35
2023-04-24T15:54:17.378Z,4.82
2023-04-24T15:56:45.692Z,5.53
2023-04-24T15:59:14.320Z,5.60
2023-04-24T16:01:42.411Z,4.95
2023-04-24T16:04:10.594Z,9.50
2023-04-24T16:06:38.566Z,9.35
2023-04-24T16:09:10.536Z,6.25
2023-04-24T16:11:39.810Z,8.23
2023-04-24T16:14:10.500Z,4.50
2023-04-24T16:16:38.453Z,4.13
2023-04-24T16:19:08.479Z,4.22
2023-04-24T16:21:35.952Z,3.40
2023-04-24T16:24:04.358Z,10.88
2023-04-24T16:26:32.067Z,3.95
2023-04-24T16:29:00.537Z,3.78
2023-04-24T16:31:28.344Z,11.00
2023-04-24T16:33:56.416Z,5.93
2023-04-24T16:36:24.284Z,7.05
2023-04-24T16:38:52.468Z,5.82
2023-04-24T16:41:20.287Z,7.80
2023-04-24T16:43:48.016Z,7.68
2023-04-24T16:46:15.511Z,6.97
2023-04-24T16:48:43.310Z,4.90
2023-04-24T16:51:10.912Z,9.10
2023-04-24T16:53:39.454Z,4.07
2023-04-24T16:56:07.532Z,7.90
2023-04-24T16:58:37.109Z,4.05
2023-04-24T17:01:05.014Z,9.90
2023-04-24T17:03:33.843Z,5.18
2023-04-24T17:06:02.244Z,4.85
2023-04-24T17:08:32.977Z,6.00
2023-04-24T17:11:01.626Z,7.32
2023-04-24T17:13:29.872Z,3.75
2023-04-24T17:15:57.741Z,8.25
2023-04-24T17:18:26.014Z,6.38
2023-04-24T17:20:53.792Z,7.28
2023-04-24T17:23:21.695Z,5.93
2023-04-24T17:25:49.790Z,14.68
2023-04-24T17:28:34.143Z,9.02
2023-04-24T17:31:01.743Z,22.90
2023-04-24T17:33:31.118Z,24.45
2023-04-24T17:36:01.896Z,15.75
2023-04-24T17:38:29.983Z,20.83
2023-04-24T17:40:58.545Z,10.25
2023-04-24T17:43:26.645Z,21.60
2023-04-24T17:45:59.471Z,16.45
2023-04-24T17:48:27.783Z,20.38
2023-04-24T17:50:55.172Z,19.63
2023-04-24T17:53:23.250Z,18.02
2023-04-24T17:55:50.603Z,15.13
2023-04-24T17:58:19.327Z,14.98
2023-04-24T18:00:47.393Z,19.75
2023-04-24T18:03:15.199Z,18.88
2023-04-24T18:05:42.437Z,19.83
2023-04-24T18:08:10.575Z,21.52
2023-04-24T18:10:37.924Z,97.32
2023-04-24T18:13:06.331Z,63.55
2023-04-24T18:15:35.905Z,56.72
2023-04-24T18:18:04.203Z,24.95
2023-04-24T18:20:34.266Z,30.40
2023-04-24T18:23:03.782Z,20.20
2023-04-24T18:25:31.798Z,15.57
2023-04-24T18:27:59.730Z,17.85
2023-04-24T18:30:28.304Z,18.42
2023-04-24T18:32:55.840Z,13.02
2023-04-24T18:35:23.697Z,13.15
2023-04-24T18:37:52.115Z,16.55
2023-04-24T18:40:19.995Z,16.10
2023-04-24T18:42:48.295Z,17.67
2023-04-24T18:45:15.703Z,18.77
2023-04-24T18:47:44.307Z,12.27
2023-04-24T18:50:12.150Z,13.35
2023-04-24T18:52:40.495Z,18.33
2023-04-24T18:55:07.975Z,17.58
2023-04-24T18:57:36.157Z,16.58
2023-04-24T19:00:04.199Z,13.30
2023-04-24T19:02:34.587Z,10.40
2023-04-24T19:05:04.172Z,12.48
2023-04-24T19:07:32.380Z,13.77
2023-04-24T19:10:00.518Z,9.63
2023-04-24T19:12:28.328Z,9.77
2023-04-24T19:14:58.118Z,13.10
2023-04-24T19:17:26.730Z,11.07
2023-04-24T19:19:54.108Z,8.32
2023-04-24T19:22:21.957Z,12.40
2023-04-24T19:24:49.448Z,9.15
2023-04-24T19:27:17.440Z,9.43
2023-04-24T19:29:44.688Z,7.90
2023-04-24T19:32:13.416Z,26.20
2023-04-24T19:34:41.443Z,25.48
2023-04-24T19:37:09.892Z,13.68
2023-04-24T19:39:37.967Z,9.90
2023-04-24T19:42:07.653Z,7.73
2023-04-24T19:44:35.509Z,8.77
2023-04-24T19:47:03.670Z,9.90
2023-04-24T19:49:32.384Z,8.95
2023-04-24T19:52:00.921Z,13.53
2023-04-24T19:54:28.899Z,9.35
2023-04-24T19:56:57.083Z,10.23
2023-04-24T19:59:24.584Z,8.75
2023-04-24T20:01:54.070Z,8.90
2023-04-24T20:04:23.582Z,11.43
2023-04-24T20:06:51.509Z,14.07
2023-04-24T20:09:19.026Z,16.93
2023-04-24T20:11:47.690Z,17.00
2023-04-24T20:14:14.815Z,14.52
2023-04-24T20:16:42.271Z,9.73
2023-04-24T20:19:09.490Z,10.83
2023-04-24T20:21:37.154Z,10.67
2023-04-24T20:24:06.770Z,10.63
2023-04-24T20:26:36.415Z,12.90
2023-04-24T20:29:04.950Z,10.57
2023-04-24T20:31:32.665Z,9.27
2023-04-24T20:33:59.865Z,10.20
2023-04-24T20:36:27.338Z,8.80
2023-04-24T20:38:54.680Z,9.43
2023-04-24T20:41:22.270Z,12.40
2023-04-24T20:43:53.496Z,11.37
2023-04-24T20:46:22.410Z,16.03
2023-04-24T20:48:49.895Z,10.20
2023-04-24T20:51:19.613Z,11.17
2023-04-24T20:53:49.517Z,11.33
2023-04-24T20:56:17.210Z,11.67
2023-04-24T20:58:48.800Z,11.10
2023-04-24T21:01:16.513Z,10.27
2023-04-24T21:03:44.258Z,10.07
2023-04-24T21:06:12.186Z,8.60
2023-04-24T21:08:39.646Z,8.73
2023-04-24T21:11:07.035Z,7.83
2023-04-24T21:13:34.636Z,10.80
2023-04-24T21:16:02.155Z,10.53
2023-04-24T21:18:29.944Z,11.10
2023-04-24T21:20:57.517Z,9.07
2023-04-24T21:23:25.776Z,9.83
2023-04-24T21:25:53.391Z,14.40
2023-04-24T21:28:20.863Z,13.10
2023-04-24T21:30:48.240Z,11.80
2023-04-24T21:33:16.001Z,12.80
2023-04-24T21:35:43.401Z,9.63
2023-04-24T21:38:10.481Z,12.87
2023-04-24T21:40:37.964Z,12.47
2023-04-24T21:43:05.317Z,15.00
2023-04-24T21:45:32.830Z,12.03
2023-04-24T21:48:01.664Z,12.20
2023-04-24T21:50:29.385Z,10.27
2023-04-24T21:52:56.732Z,10.83
2023-04-24T21:55:24.173Z,10.47
2023-04-24T21:57:53.383Z,10.90
2023-04-24T22:00:21.562Z,12.20
2023-04-24T22:02:49.680Z,10.17
2023-04-24T22:05:17.445Z,11.17
2023-04-24T22:07:46.064Z,13.63
2023-04-24T22:10:15.757Z,10.40
2023-04-24T22:12:43.743Z,6.90
2023-04-24T22:15:11.316Z,9.73
2023-04-24T22:17:39.625Z,7.67
2023-04-24T22:20:07.675Z,9.53
2023-04-24T22:22:36.084Z,7.90
2023-04-24T22:25:04.418Z,8.57
2023-04-24T22:27:31.543Z,8.80
2023-04-24T22:29:58.913Z,7.57
2023-04-24T22:32:26.164Z,7.87
2023-04-24T22:34:53.698Z,9.03
2023-04-24T22:37:21.391Z,6.80
2023-04-24T22:39:48.908Z,8.07
2023-04-24T22:42:16.149Z,9.30
2023-04-24T22:44:43.691Z,8.70
2023-04-24T22:47:11.004Z,8.80
2023-04-24T22:49:38.360Z,5.87
2023-04-24T22:52:05.615Z,7.33
2023-04-24T22:54:34.714Z,6.17
2023-04-24T22:57:03.685Z,5.77
2023-04-24T22:59:31.279Z,4.77
2023-04-24T23:01:59.480Z,8.43
2023-04-24T23:04:27.157Z,9.93
2023-04-24T23:06:54.360Z,6.27
2023-04-24T23:09:21.657Z,4.67
2023-04-24T23:11:48.794Z,6.63
2023-04-24T23:14:16.843Z,6.53
2023-04-24T23:16:45.351Z,7.13
2023-04-24T23:19:12.684Z,6.03
2023-04-24T23:21:39.846Z,6.40
2023-04-24T23:24:07.443Z,6.30
2023-04-24T23:26:37.060Z,6.70
2023-04-24T23:29:04.420Z,10.50
2023-04-24T23:31:31.478Z,6.83
2023-04-24T23:34:00.250Z,6.77
2023-04-24T23:36:27.469Z,7.23
2023-04-24T23:38:55.065Z,6.23
2023-04-24T23:41:22.323Z,6.53
2023-04-24T23:43:50.437Z,5.93
2023-04-24T23:46:18.180Z,7.40
2023-04-24T23:48:45.887Z,5.37
2023-04-24T23:51:13.066Z,7.00
2023-04-24T23:53:40.721Z,6.43
2023-04-24T23:56:08.134Z,7.80
2023-04-24T23:58:36.859Z,8.67
